ADDS METAR Data INFO
IDs: Format: Raw Decoded Include TAF

Data at: 2255 UTC 16 Jan 2018

KONZ 162235Z AUTO 26007KT 10SM BKN070 M13/M16 A3042 RMK AO2 T11301160
KONZ 162215Z AUTO 24007KT 10SM SCT044 SCT050 BKN070 M13/M16 A3042 RMK AO2 T11281158
KONZ 162155Z AUTO 25007KT 10SM SCT046 OVC070 M12/M15 A3042 RMK AO2 T11221155
KONZ 162135Z AUTO 25004KT 5SM -SN SCT031 SCT037 OVC070 M12/M15 A3041 RMK AO2 T11221155
KONZ 162115Z AUTO 26007KT 3SM -SN SCT028 BKN036 OVC046 M12/M16 A3040 RMK AO2 T11221156
KONZ 162055Z AUTO 26008KT 10SM -SN SCT038 BKN044 OVC060 M12/M16 A3039 RMK AO2 T11231159
KONZ 162035Z AUTO 25007KT 7SM -SN OVC060 M12/M16 A3039 RMK AO2 T11211159
KONZ 162015Z AUTO 26008KT 10SM -SN SCT031 SCT037 OVC060 M12/M16 A3039 RMK AO2 T11201158
KONZ 161955Z AUTO 25007KT 7SM -SN BKN033 OVC038 M12/M16 A3039 RMK AO2 T11191156
KONZ 161935Z AUTO 26009KT 4SM -SN OVC033 M12/M16 A3039 RMK AO2 T11251160
KONZ 161906Z AUTO 27007KT 2 1/2SM -SN OVC029 M12/M15 A3039 RMK AO2 T11211155
KONZ 161845Z AUTO 25008KT 4SM -SN SCT029 BKN034 OVC040 M12/M16 A3039 RMK AO2
KONZ 161814Z AUTO 24007KT 7SM -SN OVC037 M12/M15 A3039 RMK AO2 T11201155
KONZ 161755Z AUTO 28007KT 7SM -SN OVC035 M12/M16 A3039 RMK AO2 T11211157 11105 21127
KONZ 161735Z AUTO 26007KT 7SM -SN OVC033 M12/M16 A3039 RMK AO2 T11231158
KONZ 161715Z AUTO 25009KT 7SM -SN OVC033 M12/M16 A3040 RMK AO2 T11251160
KONZ 161655Z AUTO 26005KT 7SM -SN OVC033 M13/M16 A3041 RMK AO2 T11261158
KONZ 161635Z AUTO 24009KT 5SM -SN OVC033 M13/M16 A3041 RMK AO2 T11261159
KONZ 161615Z AUTO 25008KT 3SM -SN OVC033 M13/M16 A3041 RMK AO2 T11261156
KONZ 161555Z AUTO 23009KT 4SM -SN OVC033 M12/M15 A3042 RMK AO2 T11231152
KONZ 161535Z AUTO 26008KT 5SM -SN OVC031 M12/M15 A3042 RMK AO2 T11251155
KONZ 161515Z AUTO 24008KT 4SM -SN OVC031 M12/M15 A3041 RMK AO2 T11221151
KONZ 161455Z AUTO 25008KT 4SM -SN OVC031 M12/M15 A3041 RMK AO2 T11201147
KONZ 161435Z AUTO 25007KT 220V280 4SM -SN OVC031 M12/M14 A3040 RMK AO2 T11201145
KONZ 161415Z AUTO 25007KT 4SM -SN OVC031 M12/M15 A3039 RMK AO2 T11201146
KONZ 161355Z AUTO 23008KT 5SM -SN OVC029 M12/M14 A3039 RMK AO2 T11181145
KONZ 161335Z AUTO 26007KT 7SM -SN OVC027 M12/M14 A3038 RMK AO2 T11161144
KONZ 161315Z AUTO 25009KT 10SM -SN OVC025 M12/M14 A3038 RMK AO2 T11161142
KONZ 161255Z AUTO 24009KT 10SM -SN OVC021 M11/M14 A3037 RMK AO2 T11121137
KONZ 161235Z AUTO 25008KT 10SM -SN OVC021 M11/M13 A3037 RMK AO2 T11101135
KONZ 161215Z AUTO 25008KT 5SM -SN OVC019 M11/M13 A3037 RMK AO2 T11071131
KONZ 161155Z AUTO 24006KT 5SM -SN OVC019 M10/M13 A3036 RMK AO2 T11051128 11060 21105
KONZ 161135Z AUTO 25005KT 5SM -SN OVC017 M10/M13 A3036 RMK AO2 T11051127
KONZ 161115Z AUTO 25007KT 5SM -SN OVC017 M10/M13 A3035 RMK AO2 T11051127
KONZ 161055Z AUTO 24009KT 5SM -SN OVC015 M10/M12 A3035 RMK AO2 T11011125
KONZ 161035Z AUTO 24008KT 5SM -SN OVC015 M10/M12 A3034 RMK AO2 T10961120
KONZ 161015Z AUTO 25008KT 7SM -SN OVC020 M09/M11 A3034 RMK AO2 T10921115
KONZ 160955Z AUTO 24009KT 10SM -SN OVC022 M09/M11 A3034 RMK AO2 T10901113
KONZ 160935Z AUTO 25008KT 220V280 10SM -SN OVC022 M09/M11 A3033 RMK AO2 T10901112
KONZ 160915Z AUTO 25003KT 7SM -SN SCT015 OVC022 M09/M11 A3033 RMK AO2 T10931110
KONZ 160855Z AUTO 21003KT 10SM BKN017 BKN022 M10/M12 A3033 RMK AO2 T11051123
KONZ 160835Z AUTO 23004KT 10SM BKN015 M10/M12 A3032 RMK AO2 T11011120
KONZ 160815Z AUTO 24007KT 10SM OVC013 M09/M11 A3032 RMK AO2 T10951113
KONZ 160755Z AUTO 25006KT 10SM OVC011 M09/M11 A3031 RMK AO2 T10951113
KONZ 160735Z AUTO 25007KT 10SM BKN009 M09/M11 A3031 RMK AO2 T10951112
KONZ 160715Z AUTO 24008KT 10SM SCT009 M09/M11 A3030 RMK AO2 T10921109
KONZ 160655Z AUTO 23007KT 10SM CLR M08/M10 A3029 RMK AO2 T10821102
KONZ 160635Z AUTO 25008KT 10SM SCT013 M07/M09 A3029 RMK AO2 T10711091
KONZ 160615Z AUTO 24008KT 10SM BKN013 M06/M07 A3028 RMK AO2 T10601072
KONZ 160555Z AUTO 25003KT 7SM CLR M07/M08 A3028 RMK AO2 T10661077 11050 21066 410501087
KONZ 160535Z AUTO 26003KT 10SM SCT060 M06/M07 A3027 RMK AO2 T10611074
KONZ 160515Z AUTO 24005KT 10SM SCT042 OVC060 M06/M07 A3027 RMK AO2 T10561070
KONZ 160455Z AUTO 25006KT 7SM -SN SCT015 BKN042 OVC060 M05/M07 A3028 RMK AO2 T10521067
KONZ 160435Z AUTO 25005KT 5SM -SN SCT015 SCT024 OVC034 M05/M06 A3028 RMK AO2 T10511065
KONZ 160415Z AUTO 26004KT 7SM BKN036 OVC070 M05/M07 A3027 RMK AO2 T10531066
KONZ 160355Z AUTO 25004KT 10SM -SN OVC070 M05/M07 A3027 RMK AO2 T10521066
KONZ 160335Z AUTO 26003KT 10SM -SN OVC070 M05/M06 A3026 RMK AO2 T10521065
KONZ 160315Z AUTO 25004KT 10SM SCT032 SCT038 OVC070 M05/M06 A3026 RMK AO2 T10511063
KONZ 160255Z AUTO 24003KT 10SM SCT032 BKN040 OVC070 M05/M06 A3027 RMK AO2 T10521064
KONZ 160235Z AUTO 22003KT 7SM -SN SCT040 OVC070 M05/M06 A3026 RMK AO2 T10551065
KONZ 160215Z AUTO 21005KT 10SM -SN BKN044 OVC070 M05/M06 A3026 RMK AO2 T10521065
KONZ 160155Z AUTO 21004KT 10SM -SN OVC046 M05/M06 A3026 RMK AO2 T10521065
KONZ 160135Z AUTO 20004KT 10SM -SN SCT029 SCT036 OVC050 M05/M06 A3026 RMK AO2 T10521065
KONZ 160115Z AUTO 19003KT 4SM -SN SCT029 BKN038 OVC050 M05/M06 A3026 RMK AO2 T10501062
KONZ 160055Z AUTO 19004KT 5SM -SN SCT032 OVC039 M05/M06 A3025 RMK AO2 T10501063
KONZ 160035Z AUTO 18004KT 4SM -SN SCT009 BKN030 OVC037 M05/M06 A3025 RMK AO2 T10501063
KONZ 160015Z AUTO 18004KT 2SM -SN BKN009 OVC021 M05/M06 A3025 RMK AO2 T10501062
KONZ 152355Z AUTO 17003KT 5SM -SN BKN009 OVC012 M05/M06 A3025 RMK AO2 T10501065 11050 21065
KONZ 152335Z AUTO 17005KT 7SM -SN OVC009 M05/M06 A3025 RMK AO2 T10511065
KONZ 152315Z AUTO 15004KT 4SM -SN OVC011 M05/M07 A3024 RMK AO2 T10551069
KONZ 152255Z AUTO 15003KT 4SM -SN OVC011 M05/M07 A3024 RMK AO2 T10531070
KONZ 152235Z AUTO 15004KT 3SM -SN OVC011 M05/M07 A3024 RMK AO2 T10541070
KONZ 152215Z AUTO 16005KT 3SM -SN OVC011 M05/M07 A3024 RMK AO2 T10531070
KONZ 152155Z AUTO 17005KT 3SM -SN BKN013 OVC023 M05/M07 A3024 RMK AO2 T10551073
KONZ 152135Z AUTO 14004KT 3SM -SN BKN012 OVC016 M05/M07 A3023 RMK AO2 T10551073
KONZ 152115Z AUTO 15004KT 3SM -SN OVC012 M06/M07 A3023 RMK AO2 T10561075
KONZ 152055Z AUTO 00000KT 2SM -SN OVC012 M06/M08 A3022 RMK AO2 T10581078
KONZ 152035Z AUTO 14005KT 3SM -SN OVC012 M06/M08 A3022 RMK AO2 T10601080
KONZ 152015Z AUTO 14004KT 2SM -SN OVC012 M06/M08 A3022 RMK AO2 T10611082
KONZ 151955Z AUTO 14006KT 1 3/4SM -SN OVC016 M06/M08 A3022 RMK AO2 T10621084
KONZ 151935Z AUTO 15007KT 1 3/4SM -SN OVC014 M06/M09 A3022 RMK AO2 T10621086
KONZ 151915Z AUTO 14006KT 2SM -SN OVC014 M06/M09 A3022 RMK AO2 VIS 1 3/4V3 T10631087
KONZ 151855Z AUTO 14008KT 1 1/4SM -SN BKN012 OVC019 M06/M09 A3023 RMK AO2 T10631088
KONZ 151835Z AUTO 15006KT 1 1/2SM -SN BKN010 BKN017 OVC029 M06/M08 A3023 RMK AO2 T10621085
KONZ 151815Z AUTO 13006KT 3/4SM -SN OVC012 M06/M08 A3024 RMK AO2 T10621083
KONZ 151755Z AUTO 14006KT 1 1/2SM -SN BKN012 OVC026 M06/M09 A3026 RMK AO2 T10651087 11061 21085
KONZ 151735Z AUTO 14007KT 1 1/2SM -SN BKN010 OVC028 M06/M09 A3026 RMK AO2 T10651090
KONZ 151715Z AUTO 12008KT 3SM -SN BKN010 OVC030 M06/M09 A3028 RMK AO2 T10651089
KONZ 151655Z AUTO 12007KT 1 1/4SM -SN OVC010 M06/M09 A3029 RMK AO2 T10651087
KONZ 151635Z AUTO 14006KT 1 3/4SM -SN OVC012 M06/M09 A3031 RMK AO2 T10651090
KONZ 151615Z AUTO 14008KT 3SM -SN BKN012 BKN024 OVC029 M06/M09 A3032 RMK AO2 T10631090
KONZ 151555Z AUTO 13006KT 7SM -SN SCT010 BKN019 OVC029 M07/M10 A3033 RMK AO2 T10711097
KONZ 151535Z AUTO 14006KT 2 1/2SM -SN SCT012 BKN018 OVC029 M07/M10 A3034 RMK AO2 T10751098
KONZ 151515Z AUTO 14007KT 1 1/4SM -SN SCT011 BKN015 OVC020 M08/M10 A3034 RMK AO2 T10761098
KONZ 151455Z AUTO 14008KT 2 1/2SM -SN BKN011 BKN023 OVC034 M08/M10 A3034 RMK AO2 T10771101
KONZ 151435Z AUTO 15007KT 2SM -SN BKN011 BKN023 OVC033 M08/M10 A3035 RMK AO2 T10791100
KONZ 151415Z AUTO 14005KT 2SM -SN BKN011 BKN023 OVC034 M08/M10 A3035 RMK AO2 T10801100
KONZ 151355Z AUTO 14008KT 2 1/2SM -SN SCT013 SCT025 OVC035 M08/M10 A3035 RMK AO2 T10811103
KONZ 151335Z AUTO 14006KT 2 1/2SM -SN SCT011 BKN035 OVC041 M08/M10 A3035 RMK AO2 T10821104
KONZ 151315Z AUTO 15007KT 1 1/2SM -SN BKN024 OVC033 M08/M11 A3035 RMK AO2 T10831107
KONZ 151255Z AUTO 16009KT 2 1/2SM -SN SCT022 BKN031 OVC036 M08/M11 A3035 RMK AO2 T10831111
KONZ 151235Z AUTO 16009KT 5SM -SN SCT023 SCT028 OVC038 M08/M12 A3036 RMK AO2 T10821116
KONZ 151215Z AUTO 16010KT 5SM -SN BKN023 OVC030 M08/M12 A3036 RMK AO2 T10811120
KONZ 151155Z AUTO 16009KT 7SM -SN BKN025 BKN036 OVC044 M08/M13 A3037 RMK AO2 T10801126 11077 21087
KONZ 151135Z AUTO 14006KT 10SM SCT027 BKN049 OVC060 M08/M13 A3037 RMK AO2 T10771128
KONZ 151115Z AUTO 15008G37KT 10SM SCT040 OVC060 M08/M13 A3037 RMK AO2 T10781132